Time;durP1;ratioP1;P1;durP2;ratioP2;P2;SDS_P1;SDS_P2;PMS_P1;PMS_P2;Temp;Humidity;BMP_temperature;BMP_pressure;BME280_temperature;BME280_humidity;BME280_pressure;Samples;Min_cycle;Max_cycle;Signal;HPM_P1;HPM_P2
2022/01/12 00:00:46;;;;;;;111.63;44.13;;;4.00;99.90;;;;;;5040482;28;20419;-82
2022/01/12 00:03:13;;;;;;;109.20;43.17;;;4.00;99.90;;;;;;5034359;28;20046;-81
2022/01/12 00:05:39;;;;;;;113.53;43.67;;;4.00;99.90;;;;;;5056417;28;20075;-81
2022/01/12 00:08:06;;;;;;;115.50;44.90;;;4.00;99.90;;;;;;5030578;28;20036;-81
2022/01/12 00:10:31;;;;;;;115.03;44.47;;;4.00;99.90;;;;;;5041924;28;20048;-82
2022/01/12 00:12:57;;;;;;;119.30;45.23;;;4.00;99.90;;;;;;5039588;28;20417;-81
2022/01/12 00:15:24;;;;;;;117.27;46.23;;;4.00;99.90;;;;;;5046343;28;20040;-81
2022/01/12 00:17:50;;;;;;;127.83;45.97;;;4.00;99.90;;;;;;5066728;28;20402;-82
2022/01/12 00:20:16;;;;;;;115.17;44.47;;;4.00;99.90;;;;;;5063890;28;20048;-82
2022/01/12 00:22:42;;;;;;;185.47;53.20;;;4.00;99.90;;;;;;5029123;28;20044;-82
2022/01/12 00:33:15;;;;;;;136.53;46.77;;;4.00;99.90;;;;;;5051814;28;20132;-81
2022/01/12 00:35:42;;;;;;;154.57;48.47;;;4.00;99.90;;;;;;5048961;28;20554;-82
2022/01/12 00:38:09;;;;;;;134.30;45.20;;;4.00;99.90;;;;;;5027739;28;20037;-81
2022/01/12 00:40:39;;;;;;;125.60;45.43;;;4.00;99.90;;;;;;5028101;28;20614;-81
2022/01/12 00:43:04;;;;;;;173.60;49.70;;;4.00;99.90;;;;;;5027140;28;20036;-81
2022/01/12 00:45:33;;;;;;;174.77;48.37;;;4.00;99.90;;;;;;5031561;28;20055;-81
2022/01/12 00:47:59;;;;;;;152.03;46.87;;;4.00;99.90;;;;;;5054510;28;20098;-82
2022/01/12 00:50:25;;;;;;;144.07;47.67;;;4.00;99.90;;;;;;5032853;28;20048;-82
2022/01/12 00:52:53;;;;;;;186.43;50.43;;;4.00;99.90;;;;;;5037972;28;20036;-81
2022/01/12 00:55:19;;;;;;;124.20;45.57;;;4.00;99.90;;;;;;5052697;28;20040;-81
2022/01/12 00:57:44;;;;;;;178.73;49.93;;;4.00;99.90;;;;;;5045322;28;20043;-81
2022/01/12 01:00:11;;;;;;;151.43;48.17;;;4.10;99.90;;;;;;5025531;28;20109;-82
2022/01/12 01:02:38;;;;;;;132.47;46.10;;;4.10;99.90;;;;;;5059392;28;20032;-82
2022/01/12 01:05:05;;;;;;;233.90;53.57;;;4.10;99.90;;;;;;5067192;28;20056;-81
2022/01/12 01:07:32;;;;;;;147.57;48.40;;;4.10;99.90;;;;;;5045594;28;20042;-81
2022/01/12 01:10:05;;;;;;;150.87;47.63;;;4.10;99.90;;;;;;5074342;28;20053;-81
2022/01/12 01:12:35;;;;;;;170.53;49.60;;;4.10;99.90;;;;;;5024968;28;20039;-80
2022/01/12 01:15:07;;;;;;;196.03;51.17;;;4.10;99.90;;;;;;5040027;28;20378;-81
2022/01/12 01:25:40;;;;;;;141.17;47.63;;;4.10;99.90;;;;;;5030894;28;20040;-82
2022/01/12 01:28:06;;;;;;;184.83;50.60;;;4.10;99.90;;;;;;5039379;28;20113;-81
2022/01/12 01:30:35;;;;;;;163.30;49.80;;;4.10;99.90;;;;;;5046218;28;20044;-81
2022/01/12 01:33:06;;;;;;;121.97;46.07;;;4.10;99.90;;;;;;5052216;28;20029;-81
2022/01/12 01:35:37;;;;;;;211.13;52.53;;;4.10;99.90;;;;;;5054237;28;20036;-82
2022/01/12 01:38:04;;;;;;;140.97;48.13;;;4.10;99.90;;;;;;5043176;28;20041;-81
2022/01/12 01:40:32;;;;;;;136.57;47.30;;;4.10;99.90;;;;;;5049367;28;20047;-79
2022/01/12 01:53:51;;;;;;;179.33;47.33;;;4.20;99.90;;;;;;5052489;28;20498;-82
2022/01/12 01:56:21;;;;;;;180.33;49.10;;;4.20;99.90;;;;;;5034958;28;20043;-80
2022/01/12 01:58:48;;;;;;;187.97;48.17;;;4.30;99.90;;;;;;5053522;28;20063;-82
2022/01/12 02:01:14;;;;;;;138.17;45.57;;;4.20;99.90;;;;;;5017973;28;20229;-82
2022/01/12 02:03:49;;;;;;;177.27;49.03;;;4.20;99.90;;;;;;5048178;28;20063;-81
2022/01/12 02:06:16;;;;;;;221.40;52.97;;;4.30;99.90;;;;;;5056201;28;20093;-82
2022/01/12 02:08:45;;;;;;;174.47;49.73;;;4.30;99.90;;;;;;5040018;28;20060;-81
2022/01/12 02:11:25;;;;;;;257.67;52.93;;;4.30;99.90;;;;;;5041993;28;20040;-81
2022/01/12 02:13:53;;;;;;;195.50;48.47;;;4.20;99.90;;;;;;5049500;28;20056;-81
2022/01/12 02:16:25;;;;;;;251.97;53.33;;;4.20;99.90;;;;;;5045445;28;20547;-81
2022/01/12 02:19:14;;;;;;;320.67;55.60;;;4.20;99.90;;;;;;5031243;28;20049;-81
2022/01/12 02:35:46;;;;;;;156.07;46.80;;;4.30;99.90;;;;;;5048927;28;20493;-81
2022/01/12 02:40:58;;;;;;;140.97;44.57;;;4.40;99.90;;;;;;5047728;28;20054;-81
2022/01/12 02:53:49;;;;;;;279.03;54.53;;;4.40;99.90;;;;;;5059976;28;20036;-81
2022/01/12 02:56:18;;;;;;;167.13;46.47;;;4.50;99.90;;;;;;5027688;28;20129;-80
2022/01/12 02:58:46;;;;;;;274.07;50.97;;;4.40;99.90;;;;;;5057747;28;20047;-81
2022/01/12 03:03:57;;;;;;;266.80;53.00;;;4.50;99.90;;;;;;5043516;28;20040;-81
2022/01/12 03:06:28;;;;;;;255.87;53.67;;;4.50;99.90;;;;;;5030892;28;20036;-80
2022/01/12 03:08:56;;;;;;;195.23;50.00;;;4.50;99.90;;;;;;5048465;28;20033;-81
2022/01/12 03:11:24;;;;;;;222.30;47.67;;;4.50;99.90;;;;;;5041614;28;20569;-81
2022/01/12 03:13:53;;;;;;;266.87;52.60;;;4.50;99.90;;;;;;5036018;28;20036;-80
2022/01/12 03:16:22;;;;;;;265.47;53.27;;;4.50;99.90;;;;;;5048534;28;20060;-80
2022/01/12 03:18:51;;;;;;;308.07;54.40;;;4.50;99.90;;;;;;5041925;28;20462;-81
2022/01/12 03:21:20;;;;;;;167.70;47.67;;;4.50;99.90;;;;;;5020743;28;20045;-81
2022/01/12 03:23:46;;;;;;;159.10;46.17;;;4.50;99.90;;;;;;5029316;28;20044;-79
2022/01/12 03:26:13;;;;;;;566.77;66.30;;;4.50;99.90;;;;;;5010728;28;20521;-81
2022/01/12 03:28:41;;;;;;;173.90;47.10;;;4.60;99.90;;;;;;5058493;28;20139;-80
2022/01/12 03:31:15;;;;;;;154.30;45.33;;;4.60;99.90;;;;;;5053227;28;20036;-81
2022/01/12 03:39:11;;;;;;;222.33;49.23;;;4.60;99.90;;;;;;5030843;28;20055;-81
2022/01/12 03:41:41;;;;;;;234.93;48.67;;;4.60;99.90;;;;;;5022946;28;20437;-81
2022/01/12 03:44:10;;;;;;;274.33;54.73;;;4.60;99.90;;;;;;5036100;28;20056;-81
2022/01/12 03:46:44;;;;;;;183.23;48.37;;;4.60;99.90;;;;;;5054138;28;20482;-79
2022/01/12 03:49:11;;;;;;;187.27;48.10;;;4.60;99.90;;;;;;5044134;28;20127;-80
2022/01/12 03:51:37;;;;;;;205.13;48.83;;;4.60;99.90;;;;;;5036185;28;20045;-80
2022/01/12 03:54:03;;;;;;;179.43;46.07;;;4.60;99.90;;;;;;5031909;28;20460;-80
2022/01/12 03:56:29;;;;;;;209.10;48.37;;;4.60;99.90;;;;;;5047373;28;20140;-80
2022/01/12 03:58:57;;;;;;;144.10;45.13;;;4.60;99.90;;;;;;5032998;28;20487;-80
2022/01/12 04:01:23;;;;;;;270.67;51.63;;;4.60;99.90;;;;;;5062551;28;20485;-80
2022/01/12 04:03:59;;;;;;;365.67;56.17;;;4.60;99.90;;;;;;5055737;28;20063;-80
2022/01/12 04:09:10;;;;;;;324.60;54.37;;;4.60;99.90;;;;;;5050868;28;20037;-80
2022/01/12 04:11:36;;;;;;;410.07;59.77;;;4.60;99.90;;;;;;5055678;28;20043;-81
2022/01/12 04:14:04;;;;;;;187.00;48.70;;;4.60;99.90;;;;;;5054121;28;20104;-79
2022/01/12 04:16:30;;;;;;;282.63;53.03;;;4.60;99.90;;;;;;5038413;28;20039;-80
2022/01/12 04:18:56;;;;;;;194.90;47.17;;;4.60;99.90;;;;;;5052882;28;20048;-80
2022/01/12 04:21:29;;;;;;;219.47;49.23;;;4.50;99.90;;;;;;5053897;28;20104;-79
2022/01/12 04:23:55;;;;;;;183.63;46.47;;;4.50;99.90;;;;;;5051462;28;20045;-80
2022/01/12 04:26:21;;;;;;;282.23;51.67;;;4.50;99.90;;;;;;5062423;28;20040;-80
2022/01/12 04:28:47;;;;;;;273.07;50.80;;;4.50;99.90;;;;;;5038332;28;20048;-80
2022/01/12 04:31:16;;;;;;;144.83;44.53;;;4.40;99.90;;;;;;5037837;28;20044;-79
2022/01/12 04:33:45;;;;;;;185.00;46.27;;;4.40;99.90;;;;;;5056878;28;20048;-80
2022/01/12 04:36:12;;;;;;;188.57;44.90;;;4.40;99.90;;;;;;5033312;28;20068;-79
2022/01/12 04:38:40;;;;;;;429.07;48.57;;;4.40;99.90;;;;;;5057807;28;20505;-79
2022/01/12 04:41:08;;;;;;;238.17;46.27;;;4.30;99.90;;;;;;5048161;28;20048;-80
2022/01/12 04:43:36;;;;;;;243.27;43.57;;;4.30;99.90;;;;;;5058187;28;20036;-78
2022/01/12 04:48:51;;;;;;;798.53;62.33;;;4.20;99.90;;;;;;5056619;28;20490;-79
2022/01/12 04:51:18;;;;;;;243.00;45.97;;;4.20;99.90;;;;;;5041295;28;20045;-79
2022/01/12 04:53:44;;;;;;;826.97;60.30;;;4.20;99.90;;;;;;5054842;28;20111;-80
2022/01/12 04:56:10;;;;;;;639.50;54.67;;;4.20;99.90;;;;;;5049551;28;20506;-79
2022/01/12 04:58:36;;;;;;;198.63;41.43;;;4.10;99.90;;;;;;5024545;28;20391;-79
2022/01/12 05:01:08;;;;;;;210.23;39.43;;;4.10;99.90;;;;;;5053033;28;20097;-80
2022/01/12 05:14:39;;;;;;;720.85;53.22;;;4.10;99.90;;;;;;5051898;28;20060;-79
2022/01/12 05:17:05;;;;;;;483.70;46.40;;;4.00;99.90;;;;;;5069742;28;20051;-80
2022/01/12 05:19:33;;;;;;;433.53;48.30;;;4.00;99.90;;;;;;5036355;28;20036;-80
2022/01/12 05:21:59;;;;;;;913.33;59.63;;;4.00;99.90;;;;;;5042365;28;20528;-80
2022/01/12 05:24:25;;;;;;;587.47;47.43;;;4.00;99.90;;;;;;5051692;28;20056;-79
2022/01/12 05:26:50;;;;;;;762.93;55.10;;;4.00;99.90;;;;;;5030121;28;20040;-79
2022/01/12 05:29:16;;;;;;;475.03;45.23;;;4.00;99.90;;;;;;5024960;28;20135;-80
2022/01/12 05:31:42;;;;;;;1147.03;74.97;;;4.00;99.90;;;;;;5063492;28;20387;-79
2022/01/12 05:34:08;;;;;;;412.67;43.30;;;4.00;99.90;;;;;;5043598;28;20040;-80
2022/01/12 05:36:35;;;;;;;380.57;42.90;;;4.00;99.90;;;;;;5054925;28;20036;-79
2022/01/12 05:39:02;;;;;;;765.80;51.00;;;4.10;99.90;;;;;;5048030;28;20133;-79
2022/01/12 05:41:28;;;;;;;438.77;43.40;;;4.10;99.90;;;;;;5053009;28;20044;-79
2022/01/12 05:43:57;;;;;;;606.67;48.07;;;4.10;99.90;;;;;;5030944;28;20060;-79
2022/01/12 05:46:27;;;;;;;444.17;42.50;;;4.10;99.90;;;;;;5027489;28;20053;-79
2022/01/12 05:51:46;;;;;;;441.07;45.60;;;4.00;99.90;;;;;;5042633;28;20044;-79
2022/01/12 05:54:12;;;;;;;335.40;40.60;;;4.00;99.90;;;;;;5027776;28;20445;-79
2022/01/12 05:56:38;;;;;;;286.20;39.30;;;4.00;99.90;;;;;;5032427;28;20040;-78
2022/01/12 05:59:04;;;;;;;311.50;37.87;;;4.00;99.90;;;;;;5069501;28;20036;-80
2022/01/12 06:01:30;;;;;;;277.70;38.13;;;4.00;99.90;;;;;;5037357;28;20456;-80
2022/01/12 06:03:57;;;;;;;298.30;36.03;;;4.00;99.90;;;;;;5050684;28;20097;-80
2022/01/12 06:06:23;;;;;;;396.93;39.40;;;4.00;99.90;;;;;;5051936;28;20086;-79
2022/01/12 06:08:50;;;;;;;358.37;38.87;;;3.90;99.90;;;;;;5049563;28;20037;-79
2022/01/12 06:11:17;;;;;;;266.27;36.00;;;3.90;99.90;;;;;;5060034;28;20048;-79
2022/01/12 06:13:46;;;;;;;279.67;34.43;;;3.80;99.90;;;;;;5049668;28;20041;-80
2022/01/12 06:16:11;;;;;;;215.13;33.17;;;3.80;99.90;;;;;;5032317;28;20044;-79
2022/01/12 06:18:39;;;;;;;215.57;31.23;;;3.80;99.90;;;;;;5052706;28;20043;-79
2022/01/12 06:21:05;;;;;;;349.17;37.23;;;3.70;99.90;;;;;;5028694;28;20102;-79
2022/01/12 06:24:05;;;;;;;231.20;32.87;;;3.70;99.90;;;;;;5050743;28;20079;-80
2022/01/12 06:26:31;;;;;;;181.97;29.03;;;3.70;99.90;;;;;;5050271;28;20036;-80
2022/01/12 06:31:39;;;;;;;195.60;26.53;;;3.70;99.90;;;;;;5049514;28;20512;-80
2022/01/12 06:34:04;;;;;;;553.53;42.97;;;3.60;99.90;;;;;;5053181;28;20036;-80
2022/01/12 06:36:30;;;;;;;329.23;35.23;;;3.60;99.90;;;;;;5050223;28;20093;-80
2022/01/12 06:38:56;;;;;;;149.83;26.73;;;3.50;99.90;;;;;;5042604;28;20132;-79
2022/01/12 06:41:25;;;;;;;261.83;33.57;;;3.50;99.90;;;;;;5049014;28;20513;-79
2022/01/12 06:43:53;;;;;;;172.77;27.67;;;3.40;99.90;;;;;;5024251;28;20049;-79
2022/01/12 06:46:24;;;;;;;182.93;26.60;;;3.40;99.90;;;;;;5044937;28;20139;-79
2022/01/12 06:48:50;;;;;;;316.63;28.67;;;3.30;99.90;;;;;;5045165;28;20130;-80
2022/01/12 06:51:16;;;;;;;192.63;26.60;;;3.30;99.90;;;;;;5045575;28;20492;-79
2022/01/12 06:53:42;;;;;;;389.60;30.87;;;3.20;99.90;;;;;;5029470;28;20051;-79
2022/01/12 06:56:08;;;;;;;223.30;26.33;;;3.20;99.90;;;;;;5042568;28;20048;-79
2022/01/12 06:58:38;;;;;;;182.07;23.83;;;3.10;99.90;;;;;;5042849;28;20051;-79
2022/01/12 07:01:03;;;;;;;234.33;26.90;;;3.10;99.90;;;;;;5037091;28;20053;-79
2022/01/12 07:03:32;;;;;;;222.87;25.87;;;3.10;99.90;;;;;;5038454;28;20036;-80
2022/01/12 07:05:59;;;;;;;339.33;31.23;;;3.00;99.90;;;;;;5062143;28;20455;-79
2022/01/12 07:08:26;;;;;;;437.60;33.20;;;3.00;99.90;;;;;;5049728;28;20040;-79
2022/01/12 07:10:52;;;;;;;566.37;40.10;;;3.00;99.90;;;;;;5044834;28;20099;-79
2022/01/12 07:13:22;;;;;;;458.63;33.67;;;3.00;99.90;;;;;;5026330;28;20062;-79
2022/01/12 07:15:49;;;;;;;274.60;28.83;;;3.00;99.90;;;;;;5026335;28;20079;-79
2022/01/12 07:18:21;;;;;;;213.20;27.47;;;3.00;99.90;;;;;;5147966;22;20071;-84
2022/01/12 07:20:46;;;;;;;174.93;25.90;;;3.10;99.90;;;;;;5087932;28;20044;-84
2022/01/12 07:23:12;;;;;;;152.47;24.23;;;3.00;99.90;;;;;;5098501;28;20050;-84
2022/01/12 07:25:39;;;;;;;224.53;25.50;;;3.00;99.90;;;;;;5097220;28;20052;-84
2022/01/12 07:28:04;;;;;;;123.90;21.47;;;3.00;99.90;;;;;;5085664;28;20089;-84
2022/01/12 07:30:30;;;;;;;162.50;24.20;;;2.90;99.90;;;;;;5101217;28;20040;-85
2022/01/12 07:32:57;;;;;;;199.53;27.27;;;2.90;99.90;;;;;;5081216;28;20074;-84
2022/01/12 07:35:24;;;;;;;173.73;25.00;;;2.90;99.90;;;;;;5117084;28;20054;-84
2022/01/12 07:37:50;;;;;;;136.83;24.77;;;2.90;99.90;;;;;;5099681;28;20516;-84
2022/01/12 07:40:15;;;;;;;125.23;25.23;;;3.10;99.90;;;;;;5101897;28;20123;-84
2022/01/12 07:42:42;;;;;;;46.90;22.67;;;3.00;99.90;;;;;;5102058;28;20125;-84
2022/01/12 07:45:17;;;;;;;124.57;26.33;;;3.00;99.90;;;;;;5101031;28;20049;-84
2022/01/12 07:47:43;;;;;;;210.43;31.00;;;3.00;99.90;;;;;;5104144;27;20397;-84
2022/01/12 07:50:11;;;;;;;114.13;23.90;;;3.00;99.90;;;;;;5122529;28;20044;-84
2022/01/12 07:52:37;;;;;;;60.97;20.57;;;2.90;99.90;;;;;;5128810;27;20047;-83
2022/01/12 07:55:05;;;;;;;178.93;26.40;;;2.90;99.90;;;;;;5117758;27;20466;-83
2022/01/12 07:57:31;;;;;;;182.43;26.47;;;2.80;99.90;;;;;;5114032;28;20051;-81
2022/01/12 07:59:56;;;;;;;341.83;31.27;;;2.80;99.90;;;;;;5107649;27;20058;-82
2022/01/12 08:02:22;;;;;;;389.37;31.70;;;2.80;99.90;;;;;;5121054;27;20032;-82
2022/01/12 08:04:48;;;;;;;187.83;27.43;;;2.70;99.90;;;;;;5085095;28;20040;-82
2022/01/12 08:07:15;;;;;;;142.30;24.67;;;2.70;99.90;;;;;;5102928;27;20043;-83
2022/01/12 08:09:42;;;;;;;171.87;27.10;;;2.70;99.90;;;;;;5115671;27;20043;-82
2022/01/12 08:12:09;;;;;;;185.00;26.13;;;2.70;99.90;;;;;;5119208;27;20574;-82
2022/01/12 08:14:35;;;;;;;306.77;32.27;;;2.70;99.90;;;;;;5101690;28;20067;-82
2022/01/12 08:17:01;;;;;;;189.37;28.63;;;2.70;99.90;;;;;;5091429;27;20476;-83
2022/01/12 08:19:28;;;;;;;190.10;28.57;;;2.70;99.90;;;;;;5077830;27;20039;-82
2022/01/12 08:21:54;;;;;;;227.27;28.10;;;2.70;99.90;;;;;;5119342;27;20043;-83
2022/01/12 08:24:22;;;;;;;144.00;26.93;;;2.80;99.90;;;;;;5103781;27;20039;-82
2022/01/12 08:26:48;;;;;;;211.47;28.43;;;2.90;99.90;;;;;;5124449;27;20588;-82
2022/01/12 08:29:15;;;;;;;133.23;26.30;;;3.00;99.90;;;;;;5109303;27;20513;-82
2022/01/12 08:31:42;;;;;;;217.63;27.33;;;3.20;99.90;;;;;;5110441;27;20048;-82
2022/01/12 08:34:08;;;;;;;154.33;24.20;;;3.10;99.90;;;;;;5120281;27;20036;-82
2022/01/12 08:36:34;;;;;;;114.20;25.10;;;3.20;99.90;;;;;;5102328;27;20058;-82
2022/01/12 08:39:01;;;;;;;90.93;23.27;;;3.30;99.90;;;;;;5103588;27;20050;-82
2022/01/12 08:41:28;;;;;;;101.77;22.87;;;3.30;99.90;;;;;;5099516;27;20031;-82
2022/01/12 08:43:54;;;;;;;92.30;24.17;;;3.40;99.90;;;;;;5105366;27;20054;-82
2022/01/12 08:46:20;;;;;;;83.50;25.20;;;3.40;99.90;;;;;;5117230;27;20047;-82
2022/01/12 08:48:46;;;;;;;67.10;23.63;;;3.50;99.90;;;;;;5120499;27;20049;-82
2022/01/12 08:51:12;;;;;;;55.97;22.33;;;3.50;99.90;;;;;;5140043;27;20035;-82
2022/01/12 08:53:38;;;;;;;91.00;22.77;;;3.50;99.90;;;;;;5104255;27;20138;-82
2022/01/12 08:56:04;;;;;;;59.13;22.77;;;3.60;99.90;;;;;;5087951;27;20138;-82
2022/01/12 08:58:31;;;;;;;48.47;23.80;;;3.60;99.90;;;;;;5119191;27;20126;-85
2022/01/12 09:01:02;;;;;;;74.07;25.87;;;3.70;99.90;;;;;;5101129;27;20137;-85
2022/01/12 09:03:28;;;;;;;58.70;24.50;;;3.70;99.90;;;;;;5123082;27;20130;-85
2022/01/12 09:05:54;;;;;;;61.60;25.97;;;3.80;99.90;;;;;;5115050;27;20480;-82
2022/01/12 09:08:19;;;;;;;84.73;26.90;;;4.00;99.90;;;;;;5103243;27;20067;-83
2022/01/12 09:10:45;;;;;;;92.47;26.33;;;4.00;99.90;;;;;;5099755;27;20035;-82
2022/01/12 09:13:11;;;;;;;108.10;27.73;;;4.10;99.90;;;;;;5089072;27;20137;-82
2022/01/12 09:15:38;;;;;;;74.20;23.90;;;4.20;99.90;;;;;;5097204;27;20446;-83
2022/01/12 09:18:04;;;;;;;125.00;25.57;;;4.30;99.90;;;;;;5097201;27;20039;-83
2022/01/12 09:20:30;;;;;;;84.77;24.57;;;4.40;99.90;;;;;;5100589;27;20287;-82
2022/01/12 09:22:55;;;;;;;89.27;23.77;;;4.50;99.90;;;;;;5099309;27;20090;-82
2022/01/12 09:25:21;;;;;;;91.03;22.37;;;4.60;99.90;;;;;;5097719;27;20391;-82
2022/01/12 09:27:47;;;;;;;84.20;21.70;;;4.70;99.90;;;;;;5086392;27;20061;-83
2022/01/12 09:30:14;;;;;;;104.27;21.73;;;4.80;99.90;;;;;;5100894;27;20043;-82
2022/01/12 09:32:41;;;;;;;115.03;22.30;;;4.90;99.90;;;;;;5116316;27;20390;-82
2022/01/12 09:35:10;;;;;;;174.30;25.97;;;5.00;99.90;;;;;;5078014;27;20050;-84
2022/01/12 09:37:35;;;;;;;115.10;24.57;;;5.10;99.90;;;;;;5078538;27;20050;-82
2022/01/12 09:40:01;;;;;;;146.17;27.10;;;5.20;99.90;;;;;;5111795;27;20047;-80
2022/01/12 09:42:27;;;;;;;94.60;28.87;;;5.30;99.90;;;;;;5091401;28;20065;-82
2022/01/12 09:44:54;;;;;;;150.97;27.07;;;5.40;99.90;;;;;;5115165;27;20449;-81
2022/01/12 09:47:20;;;;;;;81.03;23.50;;;5.40;99.90;;;;;;5114529;27;20047;-82
2022/01/12 09:49:47;;;;;;;96.97;23.10;;;5.50;99.90;;;;;;5099451;27;20095;-82
2022/01/12 09:52:13;;;;;;;93.73;23.60;;;5.60;99.90;;;;;;5116061;27;20050;-83
2022/01/12 09:54:39;;;;;;;69.90;19.33;;;5.70;99.90;;;;;;5088827;27;20096;-83
2022/01/12 09:57:06;;;;;;;73.43;21.17;;;5.80;99.90;;;;;;5082609;27;20039;-83
2022/01/12 09:59:32;;;;;;;66.13;18.97;;;5.80;99.90;;;;;;5080501;27;20063;-82
2022/01/12 10:01:58;;;;;;;75.53;19.13;;;5.80;99.90;;;;;;5113542;27;20039;-82
2022/01/12 10:04:26;;;;;;;75.53;18.80;;;5.80;99.90;;;;;;5083443;27;20058;-83
2022/01/12 10:06:57;;;;;;;58.10;17.67;;;5.90;99.90;;;;;;5099740;27;20039;-83
2022/01/12 10:09:25;;;;;;;66.73;16.37;;;5.90;99.90;;;;;;5099204;27;20134;-83
2022/01/12 10:11:52;;;;;;;65.43;17.20;;;5.90;99.90;;;;;;5102460;27;20076;-82
2022/01/12 10:14:20;;;;;;;51.17;14.43;;;5.90;99.90;;;;;;5098668;27;20035;-82
2022/01/12 10:16:51;;;;;;;60.07;14.77;;;6.00;99.90;;;;;;5080178;28;20044;-83
2022/01/12 10:19:25;;;;;;;57.80;13.00;;;6.00;99.90;;;;;;5082121;27;20088;-82
2022/01/12 10:21:50;;;;;;;;;;;6.10;99.90;;;;;;5100407;27;20049;-83
2022/01/12 10:24:19;;;;;;;54.53;13.07;;;6.10;99.90;;;;;;5092212;27;19919;-82
2022/01/12 10:26:46;;;;;;;46.83;13.67;;;6.10;99.90;;;;;;5112794;27;20051;-83
2022/01/12 10:29:17;;;;;;;52.97;14.77;;;6.10;99.90;;;;;;5079663;27;20043;-83
2022/01/12 10:31:54;;;;;;;63.43;14.63;;;6.10;99.90;;;;;;5096689;27;20047;-83
2022/01/12 10:34:22;;;;;;;52.30;12.43;;;6.20;99.90;;;;;;5082985;27;20035;-82
2022/01/12 10:36:49;;;;;;;58.47;12.53;;;6.20;99.90;;;;;;5102932;27;20050;-83
2022/01/12 10:39:17;;;;;;;61.23;12.30;;;6.20;99.90;;;;;;5097709;27;20047;-83
2022/01/12 10:42:00;;;;;;;64.23;12.03;;;6.20;99.90;;;;;;5125612;27;20052;-83
2022/01/12 10:44:29;;;;;;;53.13;11.20;;;6.20;99.90;;;;;;5085689;27;20049;-83
2022/01/12 10:47:11;;;;;;;73.00;14.20;;;6.30;99.90;;;;;;5087849;27;20047;-83
2022/01/12 10:49:37;;;;;;;66.37;12.17;;;6.30;99.90;;;;;;5077885;27;20097;-82
2022/01/12 10:52:07;;;;;;;63.43;12.50;;;6.30;99.90;;;;;;5079167;27;20053;-83
2022/01/12 10:54:43;;;;;;;69.13;12.37;;;6.30;99.90;;;;;;5077639;27;20172;-82
2022/01/12 10:57:31;;;;;;;106.60;14.47;;;6.30;99.90;;;;;;5098690;27;20154;-83
2022/01/12 11:00:06;;;;;;;77.33;14.40;;;6.30;99.90;;;;;;5096405;27;20047;-84
2022/01/12 11:02:33;;;;;;;71.10;13.70;;;6.30;99.90;;;;;;5098047;27;20046;-83
2022/01/12 11:05:00;;;;;;;91.97;14.13;;;6.30;99.90;;;;;;5107702;27;20519;-82
2022/01/12 11:07:27;;;;;;;87.13;15.70;;;6.30;99.90;;;;;;5108856;27;20031;-82
2022/01/12 11:09:56;;;;;;;78.20;15.33;;;6.30;99.90;;;;;;5096317;27;20134;-82
2022/01/12 11:12:22;;;;;;;56.90;13.90;;;6.30;99.90;;;;;;5091444;28;20411;-82
2022/01/12 11:14:48;;;;;;;74.77;15.03;;;6.30;99.90;;;;;;5103822;27;20035;-84
2022/01/12 11:17:14;;;;;;;66.40;14.50;;;6.30;99.90;;;;;;5112054;28;20043;-85
2022/01/12 11:19:42;;;;;;;84.33;14.77;;;6.30;99.90;;;;;;5123245;27;20126;-84
2022/01/12 11:22:20;;;;;;;66.43;14.43;;;6.30;99.90;;;;;;5120332;28;20657;-84
2022/01/12 11:24:46;;;;;;;76.57;15.93;;;6.30;99.90;;;;;;5106221;28;20042;-84
2022/01/12 11:27:20;;;;;;;77.90;14.63;;;6.30;99.90;;;;;;5105161;28;20047;-83
2022/01/12 11:29:46;;;;;;;83.93;13.32;;;6.40;99.90;;;;;;5100357;28;20050;-83
2022/01/12 11:32:13;;;;;;;71.07;13.33;;;6.40;99.90;;;;;;5092446;28;20035;-82
2022/01/12 11:34:39;;;;;;;61.40;11.13;;;6.40;99.90;;;;;;5096994;27;20500;-82
2022/01/12 11:37:12;;;;;;;65.33;13.17;;;6.40;99.90;;;;;;5098871;28;20070;-83
2022/01/12 11:39:38;;;;;;;54.80;11.25;;;6.40;99.90;;;;;;5095135;27;20044;-83
2022/01/12 11:42:04;;;;;;;55.00;11.10;;;6.40;99.90;;;;;;5112842;28;20061;-82
2022/01/12 11:44:34;;;;;;;54.00;11.10;;;6.40;99.90;;;;;;5081462;28;20043;-83
2022/01/12 11:47:03;;;;;;;51.00;11.47;;;6.40;99.90;;;;;;5092352;28;20044;-84
2022/01/12 11:49:32;;;;;;;44.30;11.57;;;6.40;99.90;;;;;;5081633;27;20038;-82
2022/01/12 11:51:58;;;;;;;67.10;12.80;;;6.40;99.90;;;;;;5109116;28;20108;-82
2022/01/12 11:54:31;;;;;;;41.13;11.97;;;6.40;99.90;;;;;;5094086;28;20039;-82
2022/01/12 11:56:59;;;;;;;68.67;13.93;;;6.50;99.90;;;;;;5079740;28;20548;-83
2022/01/12 11:59:26;;;;;;;65.17;12.47;;;6.50;99.90;;;;;;5111235;28;20071;-83
2022/01/12 12:02:07;;;;;;;46.70;11.47;;;6.50;99.90;;;;;;5111864;27;20504;-84
2022/01/12 12:04:33;;;;;;;43.83;11.90;;;6.40;99.90;;;;;;5113771;28;20043;-85
2022/01/12 12:07:07;;;;;;;54.83;10.97;;;6.40;99.90;;;;;;5099749;27;20123;-82
2022/01/12 12:09:37;;;;;;;;;;;6.50;99.90;;;;;;5088494;28;20035;-83
2022/01/12 12:12:10;;;;;;;57.60;9.40;;;6.50;99.90;;;;;;5099635;28;20265;-83
2022/01/12 12:14:36;;;;;;;42.15;8.10;;;6.50;99.90;;;;;;5098439;27;20088;-83
2022/01/12 12:17:04;;;;;;;36.60;8.63;;;6.50;99.90;;;;;;5083325;27;20035;-84
2022/01/12 12:19:33;;;;;;;42.30;9.13;;;6.50;99.90;;;;;;5101886;27;20046;-85
2022/01/12 12:21:58;;;;;;;36.17;8.90;;;6.50;99.90;;;;;;5100521;27;20043;-84
2022/01/12 12:24:24;;;;;;;45.07;9.47;;;6.50;99.90;;;;;;5119889;27;20050;-84
2022/01/12 12:26:54;;;;;;;42.97;9.70;;;6.50;99.90;;;;;;5100258;28;20126;-84
2022/01/12 12:29:26;;;;;;;33.53;9.47;;;6.50;99.90;;;;;;5097982;27;20042;-83
2022/01/12 12:31:53;;;;;;;43.60;10.70;;;6.40;99.90;;;;;;5084074;27;20046;-84
2022/01/12 12:34:23;;;;;;;37.50;9.33;;;6.40;99.90;;;;;;5126666;27;20047;-84
2022/01/12 12:36:56;;;;;;;38.23;10.03;;;6.50;99.90;;;;;;5080522;27;20047;-83
2022/01/12 12:39:21;;;;;;;41.40;10.77;;;6.50;99.90;;;;;;5105249;27;20069;-82
2022/01/12 12:41:47;;;;;;;34.67;10.47;;;6.50;99.90;;;;;;5093230;27;20058;-85
2022/01/12 12:44:22;;;;;;;46.90;10.97;;;6.50;99.90;;;;;;5100002;27;20043;-84
2022/01/12 12:46:49;;;;;;;49.87;11.70;;;6.50;99.90;;;;;;5074512;27;20051;-84
2022/01/12 12:49:15;;;;;;;38.90;10.07;;;6.60;99.90;;;;;;5099146;27;20039;-85
2022/01/12 12:51:42;;;;;;;58.73;12.30;;;6.60;99.90;;;;;;5104776;28;20485;-85
2022/01/12 12:54:07;;;;;;;50.83;12.33;;;6.60;99.90;;;;;;5077323;27;20039;-84
2022/01/12 12:56:41;;;;;;;60.97;13.40;;;6.70;99.90;;;;;;5100194;27;20043;-84
2022/01/12 12:59:08;;;;;;;45.70;13.70;;;6.70;99.90;;;;;;5081395;27;20064;-85
2022/01/12 13:01:34;;;;;;;38.27;12.90;;;6.70;99.90;;;;;;5115495;27;20323;-84
2022/01/12 13:04:02;;;;;;;38.87;13.03;;;6.70;99.90;;;;;;5115710;27;20567;-84
2022/01/12 13:06:31;;;;;;;40.73;11.90;;;6.70;99.90;;;;;;5093871;27;20043;-84
2022/01/12 13:09:02;;;;;;;41.60;12.67;;;6.60;99.90;;;;;;5086285;27;20043;-82
2022/01/12 13:11:29;;;;;;;42.83;13.17;;;6.60;99.90;;;;;;5072095;27;20051;-85
2022/01/12 13:13:56;;;;;;;34.40;12.10;;;6.60;99.90;;;;;;5080554;27;20067;-85
2022/01/12 13:16:24;;;;;;;29.10;12.57;;;6.60;99.90;;;;;;5083251;27;20049;-82
2022/01/12 13:18:50;;;;;;;34.37;12.53;;;6.50;99.90;;;;;;5102636;22;20035;-80
2022/01/12 13:21:16;;;;;;;37.60;11.87;;;6.40;99.90;;;;;;5065839;28;20058;-77
2022/01/12 13:23:44;;;;;;;38.43;13.67;;;6.40;99.90;;;;;;5062583;28;20085;-77
2022/01/12 13:26:15;;;;;;;37.97;13.77;;;6.40;99.90;;;;;;5081501;28;20544;-79
2022/01/12 13:28:43;;;;;;;39.27;13.53;;;6.40;99.90;;;;;;5061924;28;20068;-79
2022/01/12 13:31:11;;;;;;;31.40;11.27;;;6.30;99.90;;;;;;5076439;28;20036;-80
2022/01/12 13:33:40;;;;;;;30.93;12.20;;;6.30;99.90;;;;;;5060756;28;20043;-79
2022/01/12 13:36:12;;;;;;;36.47;12.73;;;6.20;99.90;;;;;;5041873;28;20548;-80
2022/01/12 13:38:39;;;;;;;34.07;13.17;;;6.20;99.90;;;;;;5043857;28;20043;-79
2022/01/12 13:41:08;;;;;;;46.13;13.87;;;6.10;99.90;;;;;;5046884;28;20619;-79
2022/01/12 13:43:36;;;;;;;46.67;13.87;;;6.00;99.90;;;;;;5041617;28;20043;-78
2022/01/12 13:46:12;;;;;;;43.37;13.33;;;6.00;99.90;;;;;;5041821;28;20139;-80
2022/01/12 13:48:41;;;;;;;50.67;13.77;;;6.00;99.90;;;;;;5055990;28;20055;-80
2022/01/12 13:51:07;;;;;;;45.97;12.73;;;5.90;99.90;;;;;;5068634;28;20036;-80
2022/01/12 13:53:34;;;;;;;60.70;12.63;;;5.90;99.90;;;;;;5054610;28;20070;-79
2022/01/12 13:56:00;;;;;;;76.60;13.83;;;5.80;99.90;;;;;;5070687;28;20051;-76
2022/01/12 13:58:27;;;;;;;49.40;12.63;;;5.70;99.90;;;;;;5071652;28;20051;-80